Koninklijk Nederlands Meteorologisch Instituut; Ministerie van Verkeer en Waterstaat

 
Weer
Nederlandse vliegveldverwachtingen (TAF)
Luchtvaartmeteorologische informatie voor operationeel gebruik en vluchtvoorbereiding is beschikbaar op www.luchtvaartmeteo.nl, voor toelichting zie hier.
ZCZC
FC302000 EHWO     WOENSDRECHT/WOENSDRECHT   NLD   19 m.
TAF EHWO 302000Z NIL=

ZCZC
FC302000 EHVK     VOLKEL/VOLKEL   NLD   21 m.
TAF EHVK 302000Z NIL=

ZCZC
FC302000 EHLW     LEEUWARDEN/LEEUWARDEN   NLD   1 m.
TAF EHLW 302022Z 3021/3109 30007KT 9999 SCT030=

ZCZC
FC302000 EHGR     GILZE-RIJEN/GILZE-RIJEN   NLD   14 m.
TAF EHGR 302000Z NIL=

ZCZC
FC302100 EHKD     DE KOOY/DE KOOY   NLD   1 m.
TAF EHKD 302100Z NIL=

ZCZC
FT302300 EHAM     AMSTERDAM/SCHIPHOL   NLD   -3 m.
TAF EHAM 302255Z 3100/0106 VRB03KT 9999 FEW035
    BECMG 3114/3117 08006KT=

ZCZC
FT302300 EHBK     MAASTRICHT/MAASTRICHT-AACHEN   NLD   114 m.
TAF EHBK 302244Z 3100/0106 27004KT CAVOK
    PROB40 3101/3106 3000 MIFG SCT003=

ZCZC
FT302300 EHGG     GRONINGEN/EELDE   NLD   5 m.
TAF EHGG 302244Z 3100/0106 27006KT 9999 SCT030=

ZCZC
FT302300 EHRD     ROTTERDAM/THE HAGUE AIRPORT   NLD   -5 m.
TAF EHRD 302255Z 3100/0106 VRB03KT 9999 FEW035
    PROB30 3102/3105 4000 MIFG
    BECMG 3114/3117 08006KT=

ZCZC
FT302300 EHEH     EINDHOVEN/EINDHOVEN   NLD   22 m.
TAF EHEH 302319Z 3100/0106 VRB02KT 9999 FEW030
    PROB30 3103/3106 3500 BR MIFG
    BECMG 3107/3110 05005KT=